Time;durP1;ratioP1;P1;durP2;ratioP2;P2;SDS_P1;SDS_P2;PMS_P1;PMS_P2;Temp;Humidity;BMP_temperature;BMP_pressure;BME280_temperature;BME280_humidity;BME280_pressure;Samples;Min_cycle;Max_cycle;Signal;HPM_P1;HPM_P2
2022/04/15 00:00:40;;;;;;;14.52;9.07;;;7.10;99.90;;;;;;5038396;28;20558;-72
2022/04/15 00:03:07;;;;;;;13.30;9.43;;;7.00;99.90;;;;;;5043461;28;20131;-72
2022/04/15 00:05:45;;;;;;;18.13;9.05;;;6.90;99.90;;;;;;5034952;28;20514;-72
2022/04/15 00:08:12;;;;;;;14.57;9.90;;;6.90;99.90;;;;;;5038461;28;20060;-72
2022/04/15 00:10:40;;;;;;;12.80;9.00;;;6.90;99.90;;;;;;5037513;28;20488;-71
2022/04/15 00:13:11;;;;;;;13.75;8.70;;;6.80;99.90;;;;;;5039337;28;20483;-72
2022/04/15 00:15:37;;;;;;;17.00;10.13;;;6.80;99.90;;;;;;5039060;28;20505;-72
2022/04/15 00:18:03;;;;;;;13.93;9.30;;;6.90;99.90;;;;;;5034246;28;20045;-72
2022/04/15 00:20:29;;;;;;;14.60;8.38;;;6.80;99.90;;;;;;5039902;28;20048;-72
2022/04/15 00:22:55;;;;;;;15.02;7.78;;;6.80;99.90;;;;;;5036825;28;20526;-72
2022/04/15 00:25:21;;;;;;;11.70;7.60;;;6.70;99.90;;;;;;5061325;28;20040;-72
2022/04/15 00:27:47;;;;;;;12.00;8.32;;;6.60;99.90;;;;;;5051351;28;20041;-72
2022/04/15 00:30:13;;;;;;;12.40;8.85;;;6.50;99.90;;;;;;5037581;28;20102;-72
2022/04/15 00:32:41;;;;;;;15.38;9.05;;;6.50;99.90;;;;;;5038407;28;20045;-72
2022/04/15 00:35:08;;;;;;;12.95;7.47;;;6.50;99.90;;;;;;5037418;28;20491;-72
2022/04/15 00:37:34;;;;;;;11.18;8.07;;;6.40;99.90;;;;;;5035158;28;20499;-72
2022/04/15 00:40:02;;;;;;;13.10;8.48;;;6.40;99.90;;;;;;5038159;28;20601;-72
2022/04/15 00:42:29;;;;;;;15.05;8.55;;;6.40;99.90;;;;;;5033375;28;20823;-72
2022/04/15 00:44:56;;;;;;;12.57;7.55;;;6.40;99.90;;;;;;5019062;28;20029;-72
2022/04/15 00:47:45;;;;;;;61.40;7.85;;;6.40;99.90;;;;;;5037098;28;20048;-72
2022/04/15 00:50:12;;;;;;;36.65;7.75;;;6.30;99.90;;;;;;5034463;28;20040;-72
2022/04/15 00:52:45;;;;;;;10.88;6.93;;;6.20;99.90;;;;;;5039661;28;20056;-71
2022/04/15 00:55:12;;;;;;;7.55;6.63;;;6.20;99.90;;;;;;5056594;22;20040;-72
2022/04/15 00:57:41;;;;;;;9.85;7.05;;;6.20;99.90;;;;;;5064323;28;20037;-72
2022/04/15 01:00:08;;;;;;;11.68;7.20;;;6.20;99.90;;;;;;5066626;28;20107;-72
2022/04/15 01:02:35;;;;;;;8.00;6.85;;;6.20;99.90;;;;;;5065128;28;20120;-72
2022/04/15 01:05:06;;;;;;;9.20;7.60;;;6.20;99.90;;;;;;5066568;28;20085;-72
2022/04/15 01:07:37;;;;;;;9.95;7.20;;;6.20;99.90;;;;;;5054867;28;20512;-72
2022/04/15 01:10:06;;;;;;;9.88;6.90;;;6.20;99.90;;;;;;5052816;28;20064;-72
2022/04/15 01:12:34;;;;;;;14.50;7.97;;;6.20;99.90;;;;;;5057618;28;20082;-72
2022/04/15 01:15:01;;;;;;;10.98;8.05;;;6.20;99.90;;;;;;5052089;28;20037;-73
2022/04/15 01:17:30;;;;;;;26.42;7.68;;;6.20;99.90;;;;;;5053127;28;20044;-73
2022/04/15 01:19:56;;;;;;;9.93;6.93;;;6.10;99.90;;;;;;5050154;28;20094;-73
2022/04/15 01:22:23;;;;;;;9.30;6.68;;;6.10;99.90;;;;;;5039234;28;20498;-73
2022/04/15 01:24:49;;;;;;;95.93;7.97;;;6.00;99.90;;;;;;5052790;28;20086;-73
2022/04/15 01:27:32;;;;;;;69.95;6.93;;;6.00;99.90;;;;;;5055834;28;20494;-73
2022/04/15 01:29:57;;;;;;;74.50;7.72;;;5.90;99.90;;;;;;5055341;28;20044;-73
2022/04/15 01:32:23;;;;;;;9.13;6.68;;;5.90;99.90;;;;;;5056504;28;20036;-73
2022/04/15 01:34:49;;;;;;;14.85;7.35;;;5.90;99.90;;;;;;5050504;28;20071;-72
2022/04/15 01:37:17;;;;;;;13.68;7.60;;;5.90;99.90;;;;;;5035508;28;20044;-73
2022/04/15 01:39:43;;;;;;;11.82;7.93;;;5.90;99.90;;;;;;5051447;28;20036;-73
2022/04/15 01:42:16;;;;;;;9.40;7.47;;;6.00;99.90;;;;;;5054767;28;20044;-73
2022/04/15 01:44:43;;;;;;;13.48;9.43;;;6.00;99.90;;;;;;5051833;28;20533;-73
2022/04/15 01:47:10;;;;;;;14.00;10.27;;;6.10;99.90;;;;;;5051352;28;20127;-73
2022/04/15 01:49:36;;;;;;;12.02;9.43;;;6.10;99.90;;;;;;5060642;28;20040;-73
2022/04/15 01:52:03;;;;;;;17.20;9.80;;;6.10;99.90;;;;;;5055063;28;20551;-73
2022/04/15 01:54:29;;;;;;;19.95;11.05;;;6.10;99.90;;;;;;5067007;28;20041;-73
2022/04/15 01:56:56;;;;;;;18.60;12.15;;;6.10;99.90;;;;;;5051014;28;20041;-73
2022/04/15 01:59:22;;;;;;;21.55;13.20;;;6.20;99.90;;;;;;5055218;28;20128;-73
2022/04/15 02:01:48;;;;;;;23.20;12.38;;;6.20;99.90;;;;;;5056535;28;20033;-72
2022/04/15 02:04:14;;;;;;;18.52;12.30;;;6.20;99.90;;;;;;5051789;28;20087;-73
2022/04/15 02:06:40;;;;;;;23.20;13.80;;;6.20;99.90;;;;;;5054634;28;20044;-73
2022/04/15 02:09:05;;;;;;;21.48;14.02;;;6.30;99.90;;;;;;5056321;28;20490;-73
2022/04/15 02:11:31;;;;;;;21.10;14.13;;;6.30;99.90;;;;;;5037080;28;20040;-73
2022/04/15 02:13:57;;;;;;;20.05;13.30;;;6.30;99.90;;;;;;5052294;28;20052;-73
2022/04/15 02:16:22;;;;;;;25.13;13.88;;;6.30;99.90;;;;;;5049169;28;20033;-73
2022/04/15 02:18:48;;;;;;;23.40;13.45;;;6.40;99.90;;;;;;5053345;28;20045;-73
2022/04/15 02:21:14;;;;;;;22.25;14.18;;;6.40;99.90;;;;;;5051267;28;20541;-73
2022/04/15 02:23:39;;;;;;;22.13;13.68;;;6.40;99.90;;;;;;5052659;28;20041;-73
2022/04/15 02:26:05;;;;;;;22.13;13.55;;;6.50;99.90;;;;;;5032707;28;20059;-73
2022/04/15 02:28:30;;;;;;;26.15;13.55;;;6.60;99.90;;;;;;5051812;28;20037;-73
2022/04/15 02:30:56;;;;;;;28.90;14.07;;;6.60;99.90;;;;;;5054025;28;20037;-73
2022/04/15 02:33:22;;;;;;;24.40;13.00;;;6.70;99.90;;;;;;5057324;28;20060;-73
2022/04/15 02:35:48;;;;;;;21.52;14.02;;;6.70;99.90;;;;;;5055834;28;20040;-73
2022/04/15 02:38:13;;;;;;;21.38;13.60;;;6.80;99.90;;;;;;5056575;28;20037;-73
2022/04/15 02:40:39;;;;;;;24.90;13.82;;;6.80;99.90;;;;;;5055542;28;20048;-73
2022/04/15 02:43:06;;;;;;;18.20;13.63;;;6.80;99.90;;;;;;5058881;28;20068;-73
2022/04/15 02:45:32;;;;;;;20.42;13.70;;;6.80;99.90;;;;;;5054027;28;20037;-73
2022/04/15 02:47:58;;;;;;;22.05;14.18;;;6.90;99.90;;;;;;5054231;28;20128;-73
2022/04/15 02:50:24;;;;;;;24.42;13.13;;;6.80;99.90;;;;;;5055532;28;20120;-73
2022/04/15 02:52:50;;;;;;;20.60;12.38;;;6.90;99.90;;;;;;5057039;28;20052;-73
2022/04/15 02:55:16;;;;;;;20.88;12.63;;;6.90;99.90;;;;;;5062658;28;20048;-73
2022/04/15 02:57:42;;;;;;;19.77;12.93;;;7.00;99.90;;;;;;5043295;28;20128;-73
2022/04/15 03:00:08;;;;;;;19.77;13.32;;;7.00;99.90;;;;;;5057280;28;20119;-73
2022/04/15 03:02:34;;;;;;;19.98;12.70;;;7.00;99.90;;;;;;5055636;28;20064;-73
2022/04/15 03:05:03;;;;;;;19.83;12.93;;;7.00;99.90;;;;;;5056348;28;20036;-73
2022/04/15 03:07:29;;;;;;;20.13;13.00;;;7.10;99.90;;;;;;5052653;28;20041;-73
2022/04/15 03:09:54;;;;;;;19.13;13.13;;;7.10;99.90;;;;;;5057224;28;20055;-73
2022/04/15 03:12:20;;;;;;;17.10;12.65;;;7.10;99.90;;;;;;5060836;28;20044;-73
2022/04/15 03:14:46;;;;;;;18.40;12.13;;;7.10;99.90;;;;;;5055269;28;20486;-73
2022/04/15 03:17:12;;;;;;;18.05;11.63;;;7.10;99.90;;;;;;5069975;28;20041;-73
2022/04/15 03:19:38;;;;;;;22.63;12.38;;;7.00;99.90;;;;;;5052983;28;20072;-73
2022/04/15 03:22:05;;;;;;;22.70;12.75;;;7.10;99.90;;;;;;5072305;28;20068;-73
2022/04/15 03:24:31;;;;;;;20.85;12.80;;;7.10;99.90;;;;;;5056311;28;20041;-73
2022/04/15 03:26:57;;;;;;;21.00;12.32;;;7.10;99.90;;;;;;5053078;28;20098;-74
2022/04/15 03:29:22;;;;;;;18.58;12.55;;;7.20;99.90;;;;;;5060693;28;20444;-73
2022/04/15 03:31:48;;;;;;;16.27;11.43;;;7.20;99.90;;;;;;5055830;28;20132;-73
2022/04/15 03:34:14;;;;;;;22.92;11.95;;;7.20;99.90;;;;;;5053082;28;20071;-73
2022/04/15 03:36:40;;;;;;;19.70;12.05;;;7.20;99.90;;;;;;5053866;28;20040;-73
2022/04/15 03:39:06;;;;;;;20.27;12.18;;;7.20;99.90;;;;;;5057044;28;20041;-73
2022/04/15 03:41:32;;;;;;;18.35;11.70;;;7.30;99.90;;;;;;5052984;28;20124;-73
2022/04/15 03:43:57;;;;;;;17.48;12.50;;;7.30;99.90;;;;;;5055733;28;20519;-73
2022/04/15 03:46:23;;;;;;;16.88;11.52;;;7.40;99.90;;;;;;5056331;28;20043;-73
2022/04/15 03:48:49;;;;;;;15.65;10.98;;;7.40;99.90;;;;;;5063237;28;20051;-73
2022/04/15 03:51:15;;;;;;;14.82;10.57;;;7.50;99.90;;;;;;5059173;28;20109;-73
2022/04/15 03:53:40;;;;;;;15.80;10.18;;;7.50;99.90;;;;;;5020323;28;20040;-73
2022/04/15 03:56:07;;;;;;;14.25;10.52;;;7.40;99.90;;;;;;5053363;28;20037;-73
2022/04/15 03:58:34;;;;;;;17.13;11.35;;;7.50;99.90;;;;;;5054728;28;20033;-72
2022/04/15 04:01:00;;;;;;;13.23;10.30;;;7.50;99.90;;;;;;5053095;28;20037;-72
2022/04/15 04:03:25;;;;;;;19.42;11.30;;;7.50;99.90;;;;;;5056143;28;20082;-73
2022/04/15 04:05:51;;;;;;;15.32;10.35;;;7.50;99.90;;;;;;5060917;28;20036;-73
2022/04/15 04:08:17;;;;;;;13.02;9.90;;;7.60;99.90;;;;;;5056943;28;20520;-73
2022/04/15 04:10:42;;;;;;;12.48;9.52;;;7.60;99.90;;;;;;5055838;28;20036;-72
2022/04/15 04:13:08;;;;;;;15.95;9.60;;;7.60;99.90;;;;;;5051896;28;20037;-72
2022/04/15 04:15:34;;;;;;;15.00;9.93;;;7.70;99.90;;;;;;5053535;28;20065;-73
2022/04/15 04:18:00;;;;;;;15.25;10.57;;;7.70;99.90;;;;;;5054056;28;20123;-73
2022/04/15 04:20:27;;;;;;;15.45;9.93;;;7.70;99.90;;;;;;5040579;28;20052;-73
2022/04/15 04:22:53;;;;;;;20.58;10.95;;;7.70;99.90;;;;;;5060522;28;20064;-73
2022/04/15 04:25:19;;;;;;;15.52;10.02;;;7.70;99.90;;;;;;5050686;28;20096;-73
2022/04/15 04:27:45;;;;;;;13.48;9.90;;;7.70;99.90;;;;;;5053075;28;20446;-72
2022/04/15 04:30:15;;;;;;;16.58;10.73;;;7.70;99.90;;;;;;5057111;28;20048;-73
2022/04/15 04:32:42;;;;;;;16.88;10.00;;;7.70;99.90;;;;;;5051942;28;20127;-72
2022/04/15 04:35:08;;;;;;;16.20;9.90;;;7.70;99.90;;;;;;5054512;28;20041;-72
2022/04/15 04:37:34;;;;;;;14.02;9.30;;;7.80;99.90;;;;;;5055229;28;20066;-73
2022/04/15 04:40:00;;;;;;;15.40;10.57;;;7.80;99.90;;;;;;5053486;28;20044;-73
2022/04/15 04:42:27;;;;;;;15.10;10.40;;;7.80;99.90;;;;;;5054651;28;20051;-73
2022/04/15 04:44:52;;;;;;;16.17;8.68;;;7.80;99.90;;;;;;5050157;28;20047;-73
2022/04/15 04:47:20;;;;;;;12.13;9.82;;;7.80;99.90;;;;;;5054984;28;20495;-73
2022/04/15 04:49:46;;;;;;;15.77;9.73;;;7.90;99.90;;;;;;5056810;28;20086;-73
2022/04/15 04:52:12;;;;;;;14.07;9.60;;;7.80;99.90;;;;;;5074186;28;20123;-73
2022/04/15 04:54:39;;;;;;;16.35;9.73;;;7.90;99.90;;;;;;5055894;28;20037;-73
2022/04/15 04:57:04;;;;;;;17.55;10.38;;;7.90;99.90;;;;;;5050735;28;20106;-73
2022/04/15 04:59:32;;;;;;;12.52;9.52;;;8.00;99.90;;;;;;5055445;28;20479;-73
2022/04/15 05:01:58;;;;;;;14.85;10.00;;;8.00;99.90;;;;;;5050592;28;20029;-73
2022/04/15 05:04:24;;;;;;;18.58;9.48;;;8.00;99.90;;;;;;5053301;28;20029;-73
2022/04/15 05:06:50;;;;;;;15.23;9.57;;;8.10;99.90;;;;;;5056591;28;20520;-73
2022/04/15 05:09:15;;;;;;;16.42;10.23;;;8.10;99.90;;;;;;5054089;28;20501;-72
2022/04/15 05:11:41;;;;;;;15.45;10.27;;;8.10;99.90;;;;;;5055964;28;20048;-72
2022/04/15 05:14:07;;;;;;;16.55;10.80;;;8.10;99.90;;;;;;5033997;28;20033;-73
2022/04/15 05:16:33;;;;;;;15.38;9.75;;;8.10;99.90;;;;;;5054027;28;20064;-73
2022/04/15 05:18:59;;;;;;;15.27;10.80;;;8.10;99.90;;;;;;5047576;28;20043;-73
2022/04/15 05:21:24;;;;;;;14.38;10.82;;;8.20;99.90;;;;;;5054371;28;20483;-73
2022/04/15 05:23:50;;;;;;;18.35;11.52;;;8.20;99.90;;;;;;5055936;28;20041;-73
2022/04/15 05:26:16;;;;;;;17.65;11.88;;;8.20;99.90;;;;;;5037332;28;20510;-73
2022/04/15 05:28:42;;;;;;;18.60;12.68;;;8.30;99.90;;;;;;5054375;28;20483;-73
2022/04/15 05:31:08;;;;;;;16.58;12.23;;;8.30;99.90;;;;;;5069449;28;20059;-73
2022/04/15 05:33:35;;;;;;;15.25;11.93;;;8.30;99.90;;;;;;5051418;28;20095;-73
2022/04/15 05:36:01;;;;;;;15.93;11.73;;;8.40;99.90;;;;;;5056688;28;20429;-73
2022/04/15 05:38:27;;;;;;;16.58;11.63;;;8.40;99.90;;;;;;5035765;28;20037;-73
2022/04/15 05:40:53;;;;;;;17.42;12.48;;;8.40;99.90;;;;;;5034971;28;20479;-73
2022/04/15 05:43:19;;;;;;;17.17;11.52;;;8.50;99.90;;;;;;5055650;28;20470;-73
2022/04/15 05:45:44;;;;;;;12.98;11.05;;;8.50;99.90;;;;;;5052528;28;20486;-73
2022/04/15 05:48:10;;;;;;;16.70;11.10;;;8.50;99.90;;;;;;5050571;28;20043;-73
2022/04/15 05:50:36;;;;;;;14.45;10.70;;;8.60;99.90;;;;;;5051742;28;20578;-74
2022/04/15 05:53:02;;;;;;;10.77;8.18;;;8.60;99.90;;;;;;5031005;28;20127;-73
2022/04/15 05:55:27;;;;;;;10.75;8.10;;;8.60;99.90;;;;;;5049925;28;20035;-73
2022/04/15 05:57:53;;;;;;;8.65;7.05;;;8.70;99.90;;;;;;5036663;28;20633;-73
2022/04/15 06:00:19;;;;;;;7.20;6.47;;;8.70;99.90;;;;;;5054028;28;20458;-73
2022/04/15 06:02:45;;;;;;;9.10;6.00;;;8.80;99.90;;;;;;5047943;28;20458;-73
2022/04/15 06:05:10;;;;;;;7.30;6.10;;;8.70;99.90;;;;;;5050938;28;20403;-73
2022/04/15 06:07:36;;;;;;;8.05;5.63;;;8.70;99.90;;;;;;5051699;28;20368;-73
2022/04/15 06:10:04;;;;;;;8.35;5.60;;;8.70;99.90;;;;;;5048140;28;20410;-73
2022/04/15 06:13:00;;;;;;;6.72;5.47;;;8.70;99.90;;;;;;5049059;28;20501;-73
2022/04/15 06:15:33;;;;;;;7.80;5.70;;;8.70;99.90;;;;;;5047369;28;20037;-73
2022/04/15 06:18:00;;;;;;;6.68;5.82;;;8.70;99.90;;;;;;5047767;28;20049;-73
2022/04/15 06:20:27;;;;;;;6.90;5.72;;;8.60;99.90;;;;;;5048725;28;20036;-74
2022/04/15 06:22:54;;;;;;;7.30;5.53;;;8.60;99.90;;;;;;5047926;28;20032;-73
2022/04/15 06:25:19;;;;;;;6.13;5.53;;;8.60;99.90;;;;;;5055227;28;20036;-74
2022/04/15 06:27:45;;;;;;;8.80;5.68;;;8.50;99.90;;;;;;5046973;28;20045;-73
2022/04/15 06:30:11;;;;;;;6.35;5.75;;;8.60;99.90;;;;;;5052337;28;20380;-74
2022/04/15 06:32:37;;;;;;;6.57;5.78;;;8.60;99.90;;;;;;5055090;28;20485;-73
2022/04/15 06:35:04;;;;;;;8.25;5.65;;;8.60;99.90;;;;;;5047660;28;20506;-74
2022/04/15 06:37:30;;;;;;;9.40;5.32;;;8.50;99.90;;;;;;5039460;28;20119;-74
2022/04/15 06:39:55;;;;;;;10.45;5.30;;;8.50;99.90;;;;;;5051047;28;20161;-74
2022/04/15 06:42:22;;;;;;;6.70;4.70;;;8.60;99.90;;;;;;5045350;28;20087;-74
2022/04/15 06:44:49;;;;;;;5.05;4.30;;;8.60;99.90;;;;;;5052221;28;20047;-74
2022/04/15 06:47:14;;;;;;;5.57;4.80;;;8.60;99.90;;;;;;5051349;28;20490;-74
2022/04/15 06:49:41;;;;;;;7.68;4.80;;;8.50;99.90;;;;;;5042246;28;20079;-74
2022/04/15 06:52:07;;;;;;;7.45;4.90;;;8.50;99.90;;;;;;5051543;28;20041;-74
2022/04/15 06:54:33;;;;;;;5.60;4.65;;;8.50;99.90;;;;;;5053006;28;20044;-74
2022/04/15 06:56:58;;;;;;;7.85;5.22;;;8.50;99.90;;;;;;5049601;28;20048;-74
2022/04/15 06:59:24;;;;;;;5.72;4.85;;;8.50;99.90;;;;;;5049043;28;20025;-74
2022/04/15 07:01:50;;;;;;;7.40;5.10;;;8.40;99.90;;;;;;5048204;28;20183;-74
2022/04/15 07:04:16;;;;;;;6.88;4.82;;;8.40;99.90;;;;;;5046501;28;20131;-74
2022/04/15 07:06:42;;;;;;;6.10;4.88;;;8.50;99.90;;;;;;5048442;28;20479;-74
2022/04/15 07:09:08;;;;;;;7.00;5.00;;;8.50;99.90;;;;;;5047148;28;20044;-75
2022/04/15 07:11:33;;;;;;;7.30;4.80;;;8.50;99.90;;;;;;5051468;28;20037;-74
2022/04/15 07:13:59;;;;;;;6.88;4.85;;;8.60;99.90;;;;;;5045704;28;20044;-73
2022/04/15 07:16:25;;;;;;;5.05;4.40;;;8.60;99.90;;;;;;5034693;28;20063;-74
2022/04/15 07:18:52;;;;;;;6.53;5.13;;;8.50;99.90;;;;;;5051579;28;20044;-73
2022/04/15 07:21:18;;;;;;;6.20;5.28;;;8.50;99.90;;;;;;5048554;28;20033;-73
2022/04/15 07:23:45;;;;;;;6.43;5.32;;;8.60;99.90;;;;;;5041856;28;20056;-73
2022/04/15 07:26:10;;;;;;;7.45;5.47;;;8.60;99.90;;;;;;5060234;28;20035;-73
2022/04/15 07:28:36;;;;;;;6.68;5.57;;;8.60;99.90;;;;;;5054853;28;20402;-74
2022/04/15 07:31:02;;;;;;;7.82;5.93;;;8.50;99.90;;;;;;5046225;28;20656;-74
2022/04/15 07:33:27;;;;;;;7.45;5.95;;;8.50;99.90;;;;;;5043734;28;22513;-74
2022/04/15 07:35:53;;;;;;;8.30;6.13;;;8.50;99.90;;;;;;5034509;28;20491;-74
2022/04/15 07:38:19;;;;;;;8.98;6.57;;;8.60;99.90;;;;;;5057154;28;20041;-74
2022/04/15 07:40:44;;;;;;;7.78;6.35;;;8.50;99.90;;;;;;5051320;28;20506;-74
2022/04/15 07:43:10;;;;;;;8.57;6.90;;;8.60;99.90;;;;;;5053960;28;20033;-74
2022/04/15 07:45:36;;;;;;;9.75;7.22;;;8.60;99.90;;;;;;5052952;28;20510;-74
2022/04/15 07:48:02;;;;;;;11.02;7.55;;;8.70;99.90;;;;;;5039699;28;20075;-74
2022/04/15 07:50:27;;;;;;;11.00;7.57;;;8.70;99.90;;;;;;5054758;28;20514;-74
2022/04/15 07:52:58;;;;;;;12.27;7.80;;;8.70;99.90;;;;;;5052545;28;20491;-74
2022/04/15 07:55:27;;;;;;;11.00;7.90;;;8.70;99.90;;;;;;5050357;28;20181;-75
2022/04/15 07:57:53;;;;;;;11.65;8.43;;;8.80;99.90;;;;;;5047708;28;20049;-74
2022/04/15 08:00:20;;;;;;;10.90;8.43;;;8.80;99.90;;;;;;5055400;28;20048;-75
2022/04/15 08:02:46;;;;;;;9.68;8.00;;;8.80;99.90;;;;;;5053581;28;20083;-74
2022/04/15 08:05:13;;;;;;;14.13;8.38;;;8.90;99.90;;;;;;5048931;28;20036;-75
2022/04/15 08:07:39;;;;;;;12.63;8.55;;;9.00;99.90;;;;;;5048356;28;20087;-74
2022/04/15 08:10:06;;;;;;;14.10;9.23;;;9.00;99.90;;;;;;5066661;28;20041;-74
2022/04/15 08:12:33;;;;;;;12.98;9.38;;;9.00;99.90;;;;;;5055763;28;20037;-75
2022/04/15 08:14:59;;;;;;;15.15;9.98;;;9.00;99.90;;;;;;5052998;28;20386;-75
2022/04/15 08:17:25;;;;;;;14.30;9.77;;;9.00;99.90;;;;;;5034496;28;20086;-75
2022/04/15 08:19:51;;;;;;;13.63;10.30;;;9.00;99.90;;;;;;5052298;28;20040;-74
2022/04/15 08:22:17;;;;;;;13.82;9.93;;;9.10;99.90;;;;;;5037833;28;20032;-74
2022/04/15 08:24:43;;;;;;;16.95;10.63;;;9.10;99.90;;;;;;5048491;28;20049;-76
2022/04/15 08:27:09;;;;;;;15.10;10.70;;;9.10;99.90;;;;;;5052341;28;20390;-75
2022/04/15 08:29:38;;;;;;;13.73;10.10;;;9.10;99.90;;;;;;5054125;28;20063;-75
2022/04/15 08:32:09;;;;;;;15.80;10.43;;;9.20;99.90;;;;;;5053034;28;20077;-74
2022/04/15 08:34:38;;;;;;;14.73;10.30;;;9.30;99.90;;;;;;5049203;28;20406;-74
2022/04/15 08:37:05;;;;;;;14.15;9.85;;;9.30;99.90;;;;;;5047237;28;20048;-74
2022/04/15 08:39:30;;;;;;;15.43;10.00;;;9.40;99.90;;;;;;5045986;28;20594;-74
2022/04/15 08:41:58;;;;;;;18.05;10.40;;;9.40;99.90;;;;;;5054705;28;20029;-73
2022/04/15 08:44:24;;;;;;;17.05;10.77;;;9.40;99.90;;;;;;5048592;28;20032;-74
2022/04/15 08:46:51;;;;;;;15.38;10.65;;;9.40;99.90;;;;;;5034273;28;20041;-74
2022/04/15 08:49:19;;;;;;;15.10;11.40;;;9.50;99.90;;;;;;5048062;28;20471;-74
2022/04/15 08:51:52;;;;;;;15.02;10.30;;;9.50;99.90;;;;;;5054980;28;20062;-75
2022/04/15 08:54:18;;;;;;;;;;;9.50;99.90;;;;;;5050240;28;20101;-74
2022/04/15 08:56:44;;;;;;;17.17;10.30;;;9.60;99.90;;;;;;5053209;28;20293;-74
2022/04/15 08:59:10;;;;;;;19.45;11.23;;;9.60;99.90;;;;;;5047480;28;20029;-75
2022/04/15 09:01:35;;;;;;;15.38;10.95;;;9.70;99.90;;;;;;5052092;28;21235;-75
2022/04/15 09:04:03;;;;;;;15.38;11.20;;;9.80;99.90;;;;;;5047717;28;20037;-74
2022/04/15 09:06:30;;;;;;;23.75;11.65;;;9.80;99.90;;;;;;5052805;28;20041;-74
2022/04/15 09:09:12;;;;;;;17.02;10.93;;;9.80;99.90;;;;;;5050485;28;20041;-75
2022/04/15 09:11:40;;;;;;;16.92;11.02;;;9.80;99.90;;;;;;5054925;28;20029;-75
2022/04/15 09:14:13;;;;;;;18.60;10.15;;;9.80;99.90;;;;;;5055026;28;20134;-74
2022/04/15 09:16:47;;;;;;;16.35;10.45;;;9.90;99.90;;;;;;5046606;28;20087;-74
2022/04/15 09:19:13;;;;;;;17.13;11.07;;;10.00;99.90;;;;;;5048248;28;20383;-74
2022/04/15 09:21:56;;;;;;;17.02;10.77;;;10.10;99.90;;;;;;5034357;28;20037;-74
2022/04/15 09:24:31;;;;;;;;;;;10.10;99.90;;;;;;5065348;28;20057;-74
2022/04/15 09:27:01;;;;;;;16.35;10.18;;;10.20;99.90;;;;;;5050405;28;19924;-74
2022/04/15 09:29:35;;;;;;;13.60;9.15;;;10.20;99.90;;;;;;5051818;28;20037;-74
2022/04/15 09:32:17;;;;;;;13.48;8.55;;;10.30;99.90;;;;;;5050871;28;20041;-74
2022/04/15 09:34:56;;;;;;;13.27;8.68;;;10.40;99.90;;;;;;5050013;28;20043;-74
2022/04/15 09:37:24;;;;;;;13.60;7.82;;;10.50;99.90;;;;;;5047422;28;20036;-74
2022/04/15 09:40:20;;;;;;;12.07;7.63;;;10.50;99.90;;;;;;5049575;28;20060;-74
2022/04/15 09:42:54;;;;;;;12.88;7.63;;;10.60;99.90;;;;;;5032189;28;20075;-74
2022/04/15 09:45:22;;;;;;;13.77;7.30;;;10.70;99.90;;;;;;5048872;28;20060;-74
2022/04/15 09:47:57;;;;;;;8.70;6.95;;;10.70;99.90;;;;;;5052132;28;20045;-73
2022/04/15 09:50:26;;;;;;;11.88;6.47;;;10.80;99.90;;;;;;5050717;28;20101;-74
2022/04/15 09:52:52;;;;;;;11.75;6.65;;;10.80;99.90;;;;;;5049676;28;20182;-74
2022/04/15 09:55:25;;;;;;;10.45;6.97;;;10.90;99.90;;;;;;5050662;28;20047;-74
2022/04/15 09:57:51;;;;;;;;;;;10.90;99.90;;;;;;5051162;28;20044;-74
2022/04/15 10:00:18;;;;;;;11.15;6.78;;;11.00;99.90;;;;;;5051171;28;19917;-73
2022/04/15 10:02:45;;;;;;;11.27;7.05;;;11.10;99.90;;;;;;5032649;28;20028;-74
2022/04/15 10:05:13;;;;;;;12.02;7.15;;;11.10;99.90;;;;;;5047578;28;20041;-74
2022/04/15 10:07:43;;;;;;;9.80;6.15;;;11.20;99.90;;;;;;5053749;28;20056;-74
2022/04/15 10:10:10;;;;;;;9.45;5.95;;;11.20;99.90;;;;;;5040391;28;20147;-74
2022/04/15 10:12:39;;;;;;;7.47;6.07;;;11.20;99.90;;;;;;5050878;28;20063;-74
2022/04/15 10:15:10;;;;;;;8.98;5.88;;;11.30;99.90;;;;;;5049746;28;20032;-74
2022/04/15 10:17:39;;;;;;;8.10;5.18;;;11.50;99.90;;;;;;5055682;28;20032;-74
2022/04/15 10:20:06;;;;;;;9.10;5.47;;;11.60;99.90;;;;;;5050694;28;20033;-74
2022/04/15 10:22:34;;;;;;;9.48;5.28;;;11.70;99.90;;;;;;5049807;28;20036;-74
2022/04/15 10:25:00;;;;;;;7.70;4.82;;;11.80;99.90;;;;;;5046982;28;20036;-74
2022/04/15 10:27:30;;;;;;;8.45;5.20;;;12.00;99.90;;;;;;5035886;28;20103;-74
2022/04/15 10:30:01;;;;;;;8.00;4.45;;;12.40;99.90;;;;;;5048693;28;20048;-74
2022/04/15 10:32:26;;;;;;;7.40;4.47;;;12.70;99.90;;;;;;5051977;28;20044;-74
2022/04/15 10:34:52;;;;;;;7.82;4.82;;;12.90;99.90;;;;;;5041504;28;20552;-74
2022/04/15 10:37:53;;;;;;;8.60;4.82;;;12.90;99.90;;;;;;5049654;28;20586;-73
2022/04/15 10:40:26;;;;;;;6.63;4.53;;;13.00;99.90;;;;;;5046252;28;20075;-73
2022/04/15 10:42:53;;;;;;;8.23;4.60;;;13.00;99.90;;;;;;5030937;28;20029;-74
2022/04/15 10:45:29;;;;;;;10.35;4.60;;;12.90;99.90;;;;;;5050220;28;20029;-74
2022/04/15 10:47:59;;;;;;;7.43;4.38;;;12.90;99.90;;;;;;5054266;28;20481;-73
2022/04/15 10:50:29;;;;;;;6.70;4.60;;;12.90;99.90;;;;;;5051453;28;20052;-74
2022/04/15 10:53:16;;;;;;;6.13;4.50;;;12.90;99.90;;;;;;5050394;28;20106;-74
2022/04/15 10:55:43;;;;;;;9.93;5.00;;;12.90;99.90;;;;;;5051397;28;20399;-74
2022/04/15 10:58:13;;;;;;;8.90;5.40;;;13.00;99.90;;;;;;5050114;28;20445;-74
2022/04/15 11:03:27;;;;;;;7.03;5.05;;;12.90;99.90;;;;;;5053907;28;20455;-74
2022/04/15 11:05:57;;;;;;;8.73;5.10;;;12.90;99.90;;;;;;5047707;28;20468;-74
2022/04/15 11:08:25;;;;;;;8.50;5.03;;;12.90;99.90;;;;;;5050911;28;21049;-74
2022/04/15 11:11:07;;;;;;;8.80;4.90;;;13.00;99.90;;;;;;5053184;28;20044;-74
2022/04/15 11:13:39;;;;;;;7.75;4.75;;;13.00;99.90;;;;;;5049187;28;20377;-74
2022/04/15 11:16:11;;;;;;;9.70;5.47;;;13.00;99.90;;;;;;5051082;28;20419;-74
2022/04/15 11:18:43;;;;;;;9.85;5.82;;;13.00;99.90;;;;;;5052807;28;20428;-74
2022/04/15 11:21:33;;;;;;;7.68;5.60;;;13.00;99.90;;;;;;5054499;28;20478;-74
2022/04/15 11:24:26;;;;;;;8.55;5.45;;;13.10;99.90;;;;;;5055098;28;20491;-74
2022/04/15 11:26:58;;;;;;;7.47;5.15;;;13.10;99.90;;;;;;5045574;28;20075;-73
2022/04/15 11:29:31;;;;;;;7.18;4.82;;;13.10;99.90;;;;;;5034508;28;20372;-74
2022/04/15 11:32:07;;;;;;;7.50;5.32;;;13.20;99.90;;;;;;5051880;28;20044;-73
2022/04/15 11:34:34;;;;;;;9.82;5.35;;;13.20;99.90;;;;;;5052235;28;20029;-74
2022/04/15 11:37:05;;;;;;;8.25;5.03;;;13.20;99.90;;;;;;5056005;28;20734;-74
2022/04/15 11:39:36;;;;;;;9.35;5.72;;;13.20;99.90;;;;;;5036852;28;20486;-74
2022/04/15 11:42:14;;;;;;;9.30;6.13;;;13.20;99.90;;;;;;5053966;28;20407;-74
2022/04/15 11:44:42;;;;;;;7.07;5.50;;;13.10;99.90;;;;;;5052548;28;20487;-73
2022/04/15 11:47:18;;;;;;;12.50;5.75;;;13.10;99.90;;;;;;5053289;28;21544;-74
2022/04/15 11:49:45;;;;;;;9.15;5.32;;;13.10;99.90;;;;;;5038921;28;20416;-74
2022/04/15 11:52:28;;;;;;;10.82;5.68;;;13.10;99.90;;;;;;5050890;28;20056;-74
2022/04/15 11:54:58;;;;;;;8.35;5.38;;;13.20;99.90;;;;;;5045624;28;20049;-74
2022/04/15 11:57:25;;;;;;;8.63;5.28;;;13.10;99.90;;;;;;5046600;28;20087;-74
2022/04/15 11:59:51;;;;;;;8.02;5.50;;;13.10;99.90;;;;;;5050006;28;20041;-74
2022/04/15 12:02:18;;;;;;;10.70;5.70;;;13.10;99.90;;;;;;5050793;28;20120;-74
2022/04/15 12:04:56;;;;;;;8.85;5.70;;;13.00;99.90;;;;;;5049408;28;20494;-74
2022/04/15 12:07:23;;;;;;;8.85;6.05;;;13.00;99.90;;;;;;5047928;28;20037;-74
2022/04/15 12:09:50;;;;;;;8.88;5.55;;;13.00;99.90;;;;;;5030598;28;20045;-73
2022/04/15 12:12:17;;;;;;;10.52;5.82;;;13.00;99.90;;;;;;5051596;28;20525;-74
2022/04/15 12:14:43;;;;;;;7.32;5.50;;;12.90;99.90;;;;;;5047827;28;20529;-73
2022/04/15 12:17:14;;;;;;;8.85;5.70;;;12.90;99.90;;;;;;5050902;28;20033;-74
2022/04/15 12:19:40;;;;;;;9.30;5.85;;;12.90;99.90;;;;;;5048836;28;20454;-73
2022/04/15 12:22:09;;;;;;;8.88;5.20;;;12.90;99.90;;;;;;5051237;28;20032;-73
2022/04/15 12:24:36;;;;;;;7.38;5.38;;;12.90;99.90;;;;;;5049042;28;20553;-74
2022/04/15 12:27:02;;;;;;;6.25;5.00;;;12.90;99.90;;;;;;5046436;28;20102;-73
2022/04/15 12:29:48;;;;;;;9.88;5.88;;;13.00;99.90;;;;;;5048688;28;20554;-73
2022/04/15 12:32:22;;;;;;;7.78;5.47;;;13.00;99.90;;;;;;5046774;28;20538;-74
2022/04/15 12:35:00;;;;;;;6.55;4.97;;;13.00;99.90;;;;;;5031899;28;21799;-74
2022/04/15 12:37:41;;;;;;;10.23;5.65;;;13.00;99.90;;;;;;5045616;28;20483;-73
2022/04/15 12:40:19;;;;;;;6.75;4.63;;;13.00;99.90;;;;;;5050194;28;20487;-74
2022/04/15 12:42:46;;;;;;;8.27;5.18;;;13.10;99.90;;;;;;5047645;28;20462;-74
2022/04/15 12:45:17;;;;;;;7.15;5.05;;;13.20;99.90;;;;;;5048789;28;20060;-74
2022/04/15 12:47:45;;;;;;;8.75;5.85;;;13.20;99.90;;;;;;5048611;28;20075;-74
2022/04/15 12:50:29;;;;;;;7.80;5.20;;;13.10;99.90;;;;;;5061423;28;20037;-74
2022/04/15 12:52:55;;;;;;;8.95;5.75;;;13.00;99.90;;;;;;5049891;28;20132;-74